sensor_id;sensor_type;location;lat;lon;timestamp;pressure;altitude;pressure_sealevel;temperature
25985;BMP280;66753;53.848;10.658;2023-12-29T00:12:20;100300.75;;;11.38
25985;BMP280;66753;53.848;10.658;2023-12-29T00:27:22;100373.25;;;10.92
25985;BMP280;66753;53.848;10.658;2023-12-29T00:42:24;100368.63;;;10.58
25985;BMP280;66753;53.848;10.658;2023-12-29T00:57:26;100333.72;;;10.40
25985;BMP280;66753;53.848;10.658;2023-12-29T01:12:28;100331.66;;;10.34
25985;BMP280;66753;53.848;10.658;2023-12-29T01:27:30;100307.19;;;10.25
25985;BMP280;66753;53.848;10.658;2023-12-29T01:42:32;100318.41;;;10.18
25985;BMP280;66753;53.848;10.658;2023-12-29T01:57:34;100297.03;;;10.11
25985;BMP280;66753;53.848;10.658;2023-12-29T02:12:36;100268.56;;;10.08
25985;BMP280;66753;53.848;10.658;2023-12-29T02:28:19;100254.47;;;10.04
25985;BMP280;66753;53.848;10.658;2023-12-29T02:43:24;100233.56;;;10.15
25985;BMP280;66753;53.848;10.658;2023-12-29T02:58:26;100198.59;;;10.25
25985;BMP280;66753;53.848;10.658;2023-12-29T03:13:27;100166.03;;;10.40
25985;BMP280;66753;53.848;10.658;2023-12-29T03:28:28;100182.94;;;10.51
25985;BMP280;66753;53.848;10.658;2023-12-29T03:43:30;100153.78;;;10.01
25985;BMP280;66753;53.848;10.658;2023-12-29T03:58:32;100149.38;;;9.62
25985;BMP280;66753;53.848;10.658;2023-12-29T04:13:34;100144.28;;;9.53
25985;BMP280;66753;53.848;10.658;2023-12-29T04:28:35;100147.22;;;9.52
25985;BMP280;66753;53.848;10.658;2023-12-29T04:43:36;100191.81;;;9.81
25985;BMP280;66753;53.848;10.658;2023-12-29T04:58:38;100130.72;;;9.86
25985;BMP280;66753;53.848;10.658;2023-12-29T05:13:40;100059.78;;;9.60
25985;BMP280;66753;53.848;10.658;2023-12-29T05:28:41;100076.19;;;9.23
25985;BMP280;66753;53.848;10.658;2023-12-29T05:43:42;100093.63;;;8.96
25985;BMP280;66753;53.848;10.658;2023-12-29T05:58:44;100104.97;;;8.72
25985;BMP280;66753;53.848;10.658;2023-12-29T06:13:45;100134.28;;;8.67
25985;BMP280;66753;53.848;10.658;2023-12-29T06:28:47;100153.31;;;8.73
25985;BMP280;66753;53.848;10.658;2023-12-29T06:43:48;100165.41;;;8.74
25985;BMP280;66753;53.848;10.658;2023-12-29T06:58:50;100191.53;;;8.88
25985;BMP280;66753;53.848;10.658;2023-12-29T07:13:52;100192.81;;;9.06
25985;BMP280;66753;53.848;10.658;2023-12-29T07:28:53;100204.97;;;9.22
25985;BMP280;66753;53.848;10.658;2023-12-29T07:43:54;100202.63;;;9.33
25985;BMP280;66753;53.848;10.658;2023-12-29T07:58:56;100192.69;;;9.42
25985;BMP280;66753;53.848;10.658;2023-12-29T08:13:58;100186.00;;;9.60
25985;BMP280;66753;53.848;10.658;2023-12-29T08:29:00;100196.19;;;9.73
25985;BMP280;66753;53.848;10.658;2023-12-29T08:44:02;100179.22;;;9.90
25985;BMP280;66753;53.848;10.658;2023-12-29T08:59:04;100188.78;;;10.10
25985;BMP280;66753;53.848;10.658;2023-12-29T09:14:06;100194.41;;;10.24
25985;BMP280;66753;53.848;10.658;2023-12-29T09:29:08;100226.03;;;10.17
25985;BMP280;66753;53.848;10.658;2023-12-29T09:44:13;100197.25;;;9.57
25985;BMP280;66753;53.848;10.658;2023-12-29T09:59:16;100238.69;;;9.25
25985;BMP280;66753;53.848;10.658;2023-12-29T10:14:34;100203.00;;;9.19
25985;BMP280;66753;53.848;10.658;2023-12-29T10:29:38;100195.81;;;9.32
25985;BMP280;66753;53.848;10.658;2023-12-29T10:44:40;100183.38;;;9.32
25985;BMP280;66753;53.848;10.658;2023-12-29T10:59:42;100202.38;;;9.38
25985;BMP280;66753;53.848;10.658;2023-12-29T11:14:45;100200.91;;;9.52
25985;BMP280;66753;53.848;10.658;2023-12-29T11:29:48;100197.50;;;9.95
25985;BMP280;66753;53.848;10.658;2023-12-29T11:44:49;100163.66;;;10.35
25985;BMP280;66753;53.848;10.658;2023-12-29T11:59:51;100177.75;;;10.54
25985;BMP280;66753;53.848;10.658;2023-12-29T12:14:53;100148.34;;;10.44
25985;BMP280;66753;53.848;10.658;2023-12-29T12:29:56;100157.69;;;10.38
25985;BMP280;66753;53.848;10.658;2023-12-29T12:45:06;100140.16;;;10.33
25985;BMP280;66753;53.848;10.658;2023-12-29T13:00:13;100130.13;;;10.58
25985;BMP280;66753;53.848;10.658;2023-12-29T13:15:16;100098.00;;;10.44
25985;BMP280;66753;53.848;10.658;2023-12-29T13:30:19;100127.06;;;10.21
25985;BMP280;66753;53.848;10.658;2023-12-29T13:45:21;100144.22;;;9.96
25985;BMP280;66753;53.848;10.658;2023-12-29T14:00:23;100152.34;;;9.88
25985;BMP280;66753;53.848;10.658;2023-12-29T14:15:27;100140.69;;;10.08
25985;BMP280;66753;53.848;10.658;2023-12-29T14:30:28;100131.38;;;9.98
25985;BMP280;66753;53.848;10.658;2023-12-29T14:45:32;100148.50;;;10.01
25985;BMP280;66753;53.848;10.658;2023-12-29T15:00:33;100109.72;;;9.93
25985;BMP280;66753;53.848;10.658;2023-12-29T15:15:34;100095.53;;;9.70
25985;BMP280;66753;53.848;10.658;2023-12-29T15:30:35;100128.91;;;9.59
25985;BMP280;66753;53.848;10.658;2023-12-29T15:45:36;100131.44;;;9.55
25985;BMP280;66753;53.848;10.658;2023-12-29T16:00:37;100110.88;;;9.49
25985;BMP280;66753;53.848;10.658;2023-12-29T16:15:39;100137.09;;;9.54
25985;BMP280;66753;53.848;10.658;2023-12-29T16:30:40;100106.03;;;9.51
25985;BMP280;66753;53.848;10.658;2023-12-29T16:45:42;100128.78;;;9.40
25985;BMP280;66753;53.848;10.658;2023-12-29T17:00:44;100108.59;;;9.20
25985;BMP280;66753;53.848;10.658;2023-12-29T17:30:56;100138.75;;;9.19
25985;BMP280;66753;53.848;10.658;2023-12-29T17:46:02;100163.69;;;9.18
25985;BMP280;66753;53.848;10.658;2023-12-29T18:01:07;100176.34;;;9.12
25985;BMP280;66753;53.848;10.658;2023-12-29T18:16:08;100165.72;;;9.09
25985;BMP280;66753;53.848;10.658;2023-12-29T18:31:10;100171.72;;;9.09
25985;BMP280;66753;53.848;10.658;2023-12-29T18:46:13;100162.19;;;9.05
25985;BMP280;66753;53.848;10.658;2023-12-29T19:01:15;100139.63;;;8.95
25985;BMP280;66753;53.848;10.658;2023-12-29T19:16:22;100164.31;;;8.87
25985;BMP280;66753;53.848;10.658;2023-12-29T19:31:24;100164.88;;;8.80
25985;BMP280;66753;53.848;10.658;2023-12-29T19:46:26;100156.09;;;8.76
25985;BMP280;66753;53.848;10.658;2023-12-29T20:01:28;100176.53;;;8.67
25985;BMP280;66753;53.848;10.658;2023-12-29T20:16:31;100166.63;;;8.64
25985;BMP280;66753;53.848;10.658;2023-12-29T20:31:32;100172.81;;;8.68
25985;BMP280;66753;53.848;10.658;2023-12-29T20:46:36;100183.81;;;8.82
25985;BMP280;66753;53.848;10.658;2023-12-29T21:01:41;100175.75;;;8.91
25985;BMP280;66753;53.848;10.658;2023-12-29T21:16:42;100188.84;;;9.00
25985;BMP280;66753;53.848;10.658;2023-12-29T21:31:44;100181.25;;;8.98
25985;BMP280;66753;53.848;10.658;2023-12-29T21:46:45;100172.44;;;8.94
25985;BMP280;66753;53.848;10.658;2023-12-29T22:01:46;100183.47;;;8.96
25985;BMP280;66753;53.848;10.658;2023-12-29T22:16:47;100211.75;;;8.83
25985;BMP280;66753;53.848;10.658;2023-12-29T22:31:48;100226.19;;;8.62
25985;BMP280;66753;53.848;10.658;2023-12-29T22:46:49;100230.13;;;8.44
25985;BMP280;66753;53.848;10.658;2023-12-29T23:01:50;100231.13;;;8.27
25985;BMP280;66753;53.848;10.658;2023-12-29T23:16:52;100228.34;;;8.24
25985;BMP280;66753;53.848;10.658;2023-12-29T23:31:53;100215.94;;;8.24
25985;BMP280;66753;53.848;10.658;2023-12-29T23:46:54;100203.72;;;8.20
